createdAt,value
2023-10-23T00:01:56.842Z,11.35
2023-10-23T00:04:24.944Z,11.26
2023-10-23T00:06:52.740Z,11.22
2023-10-23T00:09:21.664Z,11.26
2023-10-23T00:11:49.430Z,11.05
2023-10-23T00:14:17.089Z,11.27
2023-10-23T00:16:44.739Z,11.25
2023-10-23T00:19:12.579Z,11.26
2023-10-23T00:21:40.156Z,10.94
2023-10-23T00:24:07.970Z,11.15
2023-10-23T00:26:35.797Z,11.21
2023-10-23T00:29:03.464Z,11.22
2023-10-23T00:31:31.039Z,10.90
2023-10-23T00:33:59.088Z,11.08
2023-10-23T00:36:26.770Z,10.58
2023-10-23T00:38:54.412Z,10.61
2023-10-23T00:41:22.201Z,10.49
2023-10-23T00:43:49.830Z,10.64
2023-10-23T00:46:21.333Z,10.46
2023-10-23T00:48:49.880Z,10.70
2023-10-23T00:51:18.673Z,10.77
2023-10-23T00:53:47.331Z,10.78
2023-10-23T00:56:15.327Z,10.70
2023-10-23T00:58:43.924Z,10.29
2023-10-23T01:01:16.325Z,10.40
2023-10-23T01:03:44.955Z,10.31
2023-10-23T01:06:15.590Z,10.60
2023-10-23T01:08:43.985Z,10.66
2023-10-23T01:11:11.792Z,10.65
2023-10-23T01:13:39.771Z,10.37
2023-10-23T01:16:08.400Z,10.32
2023-10-23T01:18:36.451Z,10.43
2023-10-23T01:21:04.078Z,10.51
2023-10-23T01:23:35.909Z,10.55
2023-10-23T01:26:04.801Z,10.33
2023-10-23T01:28:32.485Z,10.58
2023-10-23T01:31:00.523Z,10.53
2023-10-23T01:33:29.770Z,10.60
2023-10-23T01:35:57.521Z,10.63
2023-10-23T01:38:26.763Z,10.60
2023-10-23T01:40:54.563Z,10.66
2023-10-23T01:43:22.197Z,10.71
2023-10-23T01:45:49.993Z,10.63
2023-10-23T01:48:17.960Z,10.68
2023-10-23T01:50:45.532Z,10.71
2023-10-23T01:53:13.129Z,10.62
2023-10-23T01:55:41.383Z,10.58
2023-10-23T01:58:08.911Z,10.62
2023-10-23T02:00:36.798Z,10.70
2023-10-23T02:03:05.666Z,10.77
2023-10-23T02:05:33.366Z,10.77
2023-10-23T02:08:00.993Z,10.84
2023-10-23T02:10:30.188Z,10.83
2023-10-23T02:12:57.733Z,10.86
2023-10-23T02:15:25.307Z,10.88
2023-10-23T02:17:53.243Z,10.90
2023-10-23T02:20:23.289Z,10.67
2023-10-23T02:22:50.821Z,10.90
2023-10-23T02:25:18.537Z,10.90
2023-10-23T02:27:46.479Z,10.65
2023-10-23T02:30:14.403Z,10.85
2023-10-23T02:32:41.905Z,10.86
2023-10-23T02:35:10.001Z,10.89
2023-10-23T02:37:37.543Z,10.81
2023-10-23T02:40:07.045Z,10.78
2023-10-23T02:42:35.073Z,10.79
2023-10-23T02:45:02.661Z,10.81
2023-10-23T02:47:30.216Z,10.85
2023-10-23T02:49:58.044Z,10.84
2023-10-23T02:52:26.775Z,10.60
2023-10-23T02:54:54.405Z,10.85
2023-10-23T02:57:22.299Z,10.84
2023-10-23T02:59:49.874Z,10.80
2023-10-23T03:02:17.944Z,10.52
2023-10-23T03:04:45.863Z,10.72
2023-10-23T03:07:14.574Z,10.69
2023-10-23T03:09:42.721Z,10.73
2023-10-23T03:12:10.676Z,10.63
2023-10-23T03:14:38.244Z,10.56
2023-10-23T03:17:05.779Z,10.60
2023-10-23T03:19:33.625Z,10.68
2023-10-23T03:22:01.322Z,10.73
2023-10-23T03:24:29.365Z,10.74
2023-10-23T03:26:58.916Z,10.63
2023-10-23T03:29:26.449Z,10.52
2023-10-23T03:31:53.984Z,10.52
2023-10-23T03:34:26.325Z,10.54
2023-10-23T03:36:54.082Z,10.47
2023-10-23T03:39:21.920Z,10.48
2023-10-23T03:41:49.586Z,10.44
2023-10-23T03:44:17.160Z,10.47
2023-10-23T03:46:45.848Z,10.18
2023-10-23T03:49:13.446Z,10.39
2023-10-23T03:51:40.965Z,10.10
2023-10-23T03:54:08.798Z,10.31
2023-10-23T03:56:36.403Z,10.37
2023-10-23T03:59:04.559Z,10.30
2023-10-23T04:01:32.397Z,10.28
2023-10-23T04:04:00.396Z,10.35
2023-10-23T04:06:28.124Z,10.10
2023-10-23T04:08:55.592Z,10.37
2023-10-23T04:11:23.775Z,10.35
2023-10-23T04:13:51.373Z,9.94
2023-10-23T04:16:19.063Z,9.99
2023-10-23T04:18:47.469Z,10.30
2023-10-23T04:21:15.125Z,10.34
2023-10-23T04:23:42.710Z,10.35
2023-10-23T04:26:10.648Z,10.38
2023-10-23T04:28:38.267Z,10.42
2023-10-23T04:31:06.129Z,10.22
2023-10-23T04:33:34.177Z,10.46
2023-10-23T04:36:02.022Z,10.48
2023-10-23T04:38:29.985Z,10.19
2023-10-23T04:40:57.835Z,10.52
2023-10-23T04:43:25.311Z,10.56
2023-10-23T04:45:56.602Z,10.58
2023-10-23T04:48:24.665Z,10.60
2023-10-23T04:50:52.379Z,10.61
2023-10-23T04:53:20.725Z,10.60
2023-10-23T04:55:48.755Z,10.36
2023-10-23T04:58:16.356Z,10.62
2023-10-23T05:00:45.583Z,10.61
2023-10-23T05:03:13.679Z,10.57
2023-10-23T05:05:48.395Z,10.58
2023-10-23T05:08:16.447Z,10.55
2023-10-23T05:10:43.966Z,10.49
2023-10-23T05:13:11.599Z,10.18
2023-10-23T05:15:39.490Z,10.32
2023-10-23T05:18:07.113Z,10.09
2023-10-23T05:20:35.514Z,9.91
2023-10-23T05:23:04.337Z,9.92
2023-10-23T05:25:31.910Z,10.01
2023-10-23T05:27:59.681Z,10.13
2023-10-23T05:30:28.059Z,10.07
2023-10-23T05:32:55.842Z,9.80
2023-10-23T05:35:23.526Z,9.85
2023-10-23T05:37:51.417Z,9.49
2023-10-23T05:40:18.979Z,9.42
2023-10-23T05:42:46.602Z,9.40
2023-10-23T05:45:14.614Z,9.27
2023-10-23T05:47:42.418Z,9.30
2023-10-23T05:50:10.181Z,9.04
2023-10-23T05:52:37.934Z,9.38
2023-10-23T05:55:06.130Z,9.48
2023-10-23T05:57:33.832Z,9.41
2023-10-23T06:00:02.108Z,9.53
2023-10-23T06:02:31.370Z,9.43
2023-10-23T06:04:59.508Z,9.85
2023-10-23T06:07:27.260Z,9.92
2023-10-23T06:09:54.875Z,9.81
2023-10-23T06:12:22.769Z,9.90
2023-10-23T06:14:51.083Z,10.03
2023-10-23T06:17:18.732Z,10.16
2023-10-23T06:19:46.578Z,10.28
2023-10-23T06:22:14.177Z,10.43
2023-10-23T06:24:41.707Z,10.54
2023-10-23T06:27:09.598Z,10.43
2023-10-23T06:29:37.572Z,10.75
2023-10-23T06:32:05.880Z,10.96
2023-10-23T06:34:33.682Z,11.11
2023-10-23T06:37:01.298Z,11.20
2023-10-23T06:39:28.878Z,11.44
2023-10-23T06:41:56.758Z,11.62
2023-10-23T06:44:24.761Z,11.78
2023-10-23T06:46:52.539Z,11.95
2023-10-23T06:49:20.470Z,11.95
2023-10-23T06:51:48.016Z,12.14
2023-10-23T06:54:15.606Z,12.37
2023-10-23T06:56:43.623Z,12.48
2023-10-23T06:59:11.310Z,12.60
2023-10-23T07:01:45.046Z,12.79
2023-10-23T07:04:13.471Z,12.83
2023-10-23T07:06:41.093Z,12.99
2023-10-23T07:09:08.714Z,13.20
2023-10-23T07:11:36.717Z,13.30
2023-10-23T07:14:04.411Z,13.47
2023-10-23T07:16:32.056Z,13.62
2023-10-23T07:19:00.168Z,13.79
2023-10-23T07:21:28.685Z,13.72
2023-10-23T07:23:56.337Z,14.10
2023-10-23T07:26:24.219Z,14.25
2023-10-23T07:28:51.885Z,14.41
2023-10-23T07:31:19.628Z,14.45
2023-10-23T07:33:47.582Z,14.51
2023-10-23T07:36:16.148Z,14.63
2023-10-23T07:38:44.991Z,14.66
2023-10-23T07:41:14.202Z,14.56
2023-10-23T07:43:43.069Z,14.89
2023-10-23T07:46:17.551Z,15.16
2023-10-23T07:48:47.113Z,15.26
2023-10-23T07:51:15.705Z,15.53
2023-10-23T07:53:43.476Z,15.72
2023-10-23T07:56:14.074Z,15.87
2023-10-23T07:58:42.063Z,16.03
2023-10-23T08:01:13.229Z,16.20
2023-10-23T08:03:42.056Z,16.14
2023-10-23T08:06:11.778Z,16.22
2023-10-23T08:08:41.589Z,16.39
2023-10-23T08:11:11.186Z,16.60
2023-10-23T08:13:39.087Z,16.78
2023-10-23T08:16:07.398Z,16.83
2023-10-23T08:18:39.007Z,16.97
2023-10-23T08:21:16.073Z,16.90
2023-10-23T08:23:47.862Z,17.23
2023-10-23T08:26:15.891Z,17.24
2023-10-23T08:31:29.338Z,17.52
2023-10-23T08:34:02.169Z,17.62
2023-10-23T08:36:29.880Z,17.72
2023-10-23T08:38:57.465Z,17.85
2023-10-23T08:41:26.968Z,17.99
2023-10-23T08:43:56.432Z,18.08
2023-10-23T08:46:32.796Z,18.14
2023-10-23T08:49:02.655Z,18.11
2023-10-23T08:51:31.245Z,18.42
2023-10-23T08:54:10.876Z,18.39
2023-10-23T08:56:42.516Z,18.57
2023-10-23T08:59:11.652Z,18.68
2023-10-23T09:01:39.849Z,18.55
2023-10-23T09:04:11.462Z,18.76
2023-10-23T09:06:40.126Z,18.93
2023-10-23T09:09:08.096Z,19.03
2023-10-23T09:11:47.076Z,19.16
2023-10-23T09:14:29.394Z,19.22
2023-10-23T09:16:58.223Z,19.26
2023-10-23T09:19:29.247Z,19.44
2023-10-23T09:21:57.834Z,19.56
2023-10-23T09:24:26.532Z,19.62
2023-10-23T09:26:54.265Z,19.70
2023-10-23T09:29:30.731Z,19.76
2023-10-23T09:32:00.359Z,19.67
2023-10-23T09:34:30.368Z,19.92
2023-10-23T09:36:58.631Z,19.99
2023-10-23T09:39:26.314Z,20.05
2023-10-23T09:41:54.302Z,20.13
2023-10-23T09:44:25.586Z,20.15
2023-10-23T09:46:55.078Z,20.21
2023-10-23T09:49:23.446Z,20.26
2023-10-23T09:51:54.497Z,20.35
2023-10-23T09:54:22.492Z,20.43
2023-10-23T09:56:52.063Z,20.50
2023-10-23T09:59:25.646Z,20.34
2023-10-23T10:02:00.682Z,20.68
2023-10-23T10:04:49.802Z,20.65
2023-10-23T10:07:28.872Z,20.74
2023-10-23T10:09:58.055Z,20.76
2023-10-23T10:12:28.165Z,20.69
2023-10-23T10:14:58.499Z,20.96
2023-10-23T10:17:27.312Z,20.85
2023-10-23T10:19:57.006Z,21.05
2023-10-23T10:22:31.775Z,21.11
2023-10-23T10:24:59.845Z,21.17
2023-10-23T10:27:28.548Z,21.06
2023-10-23T10:29:56.038Z,21.22
2023-10-23T10:32:26.735Z,21.28
2023-10-23T10:34:57.805Z,21.34
2023-10-23T10:37:29.437Z,21.39
2023-10-23T10:39:57.479Z,21.46
2023-10-23T10:42:30.669Z,21.43
2023-10-23T10:45:00.932Z,21.47
2023-10-23T10:47:37.468Z,21.60
2023-10-23T10:50:06.426Z,21.53
2023-10-23T10:52:35.445Z,21.72
2023-10-23T10:55:14.106Z,21.56
2023-10-23T10:57:44.706Z,21.78
2023-10-23T11:00:13.708Z,21.78
2023-10-23T11:02:41.972Z,21.80
2023-10-23T11:05:15.586Z,21.90
2023-10-23T11:07:47.771Z,21.87
2023-10-23T11:10:15.420Z,21.95
2023-10-23T11:12:43.452Z,21.99
2023-10-23T11:15:11.207Z,21.91
2023-10-23T11:17:38.766Z,21.78
2023-10-23T11:20:08.825Z,21.73
2023-10-23T11:22:48.842Z,21.65
2023-10-23T11:25:16.922Z,21.77
2023-10-23T11:27:44.650Z,21.87
2023-10-23T11:30:12.394Z,21.96
2023-10-23T11:32:41.557Z,22.07
2023-10-23T11:35:09.396Z,22.18
2023-10-23T11:37:43.507Z,22.30
2023-10-23T11:40:12.419Z,22.38
2023-10-23T11:42:51.255Z,22.33
2023-10-23T11:45:19.293Z,22.17
2023-10-23T11:47:47.499Z,22.40
2023-10-23T11:50:15.214Z,22.24
2023-10-23T11:52:49.644Z,22.23
2023-10-23T11:55:18.644Z,22.29
2023-10-23T11:57:48.647Z,22.54
2023-10-23T12:00:18.341Z,22.37
2023-10-23T12:02:48.311Z,22.55
2023-10-23T12:05:17.966Z,22.52
2023-10-23T12:07:51.152Z,22.45
2023-10-23T12:10:18.765Z,22.66
2023-10-23T12:12:47.676Z,22.63
2023-10-23T12:15:16.771Z,22.56
2023-10-23T12:17:44.419Z,22.68
2023-10-23T12:20:13.576Z,22.45
2023-10-23T12:22:46.010Z,22.66
2023-10-23T12:25:15.642Z,22.71
2023-10-23T12:27:43.725Z,22.62
2023-10-23T12:30:16.777Z,22.48
2023-10-23T12:33:17.500Z,22.49
2023-10-23T12:35:40.174Z,22.27
2023-10-23T12:38:08.174Z,22.30
2023-10-23T12:40:37.219Z,22.23
2023-10-23T12:43:05.579Z,22.30
2023-10-23T12:45:33.716Z,22.25
2023-10-23T12:48:01.453Z,22.22
2023-10-23T12:50:30.290Z,22.29
2023-10-23T12:52:58.429Z,22.32
2023-10-23T12:55:26.043Z,22.40
2023-10-23T12:57:53.660Z,22.27
2023-10-23T13:00:21.509Z,22.31
2023-10-23T13:02:49.294Z,21.97
2023-10-23T13:05:16.964Z,21.76
2023-10-23T13:07:44.860Z,21.87
2023-10-23T13:10:12.620Z,21.75
2023-10-23T13:12:40.258Z,21.69
2023-10-23T13:15:08.515Z,21.65
2023-10-23T13:17:36.130Z,21.61
2023-10-23T13:21:28.018Z,21.61
2023-10-23T13:22:55.526Z,21.51
2023-10-23T13:25:23.249Z,21.51
2023-10-23T13:27:50.884Z,21.54
2023-10-23T13:30:18.747Z,21.53
2023-10-23T13:32:47.146Z,21.28
2023-10-23T13:35:16.573Z,21.50
2023-10-23T13:37:45.211Z,21.42
2023-10-23T13:40:12.809Z,21.38
2023-10-23T13:42:40.454Z,21.26
2023-10-23T13:45:08.980Z,21.22
2023-10-23T13:47:36.510Z,21.06
2023-10-23T13:50:05.376Z,21.20
2023-10-23T13:52:34.417Z,21.19
2023-10-23T13:55:02.205Z,20.93
2023-10-23T13:57:29.932Z,21.09
2023-10-23T13:59:57.797Z,21.07
2023-10-23T14:02:25.628Z,21.05
2023-10-23T14:04:53.669Z,21.09
2023-10-23T14:07:21.384Z,21.16
2023-10-23T14:09:50.487Z,21.23
2023-10-23T14:12:20.659Z,21.30
2023-10-23T14:14:48.197Z,21.43
2023-10-23T14:17:15.797Z,21.41
2023-10-23T14:19:48.352Z,21.34
2023-10-23T14:22:18.048Z,21.20
2023-10-23T14:24:49.067Z,20.97
2023-10-23T14:27:17.199Z,20.93
2023-10-23T14:29:44.761Z,20.87
2023-10-23T14:32:12.733Z,20.82
2023-10-23T14:34:40.332Z,20.79
2023-10-23T14:37:08.050Z,20.80
2023-10-23T14:39:35.821Z,20.57
2023-10-23T14:42:03.428Z,20.73
2023-10-23T14:44:32.497Z,20.68
2023-10-23T14:47:00.650Z,20.67
2023-10-23T14:49:29.077Z,20.61
2023-10-23T14:51:56.845Z,20.33
2023-10-23T14:54:25.246Z,20.40
2023-10-23T14:56:53.356Z,20.31
2023-10-23T14:59:22.965Z,20.02
2023-10-23T15:01:51.425Z,20.12
2023-10-23T15:04:19.190Z,20.03
2023-10-23T15:06:46.852Z,19.92
2023-10-23T15:09:14.705Z,19.81
2023-10-23T15:11:42.230Z,19.69
2023-10-23T15:14:10.222Z,19.58
2023-10-23T15:16:38.947Z,19.46
2023-10-23T15:19:06.624Z,19.34
2023-10-23T15:21:34.280Z,19.24
2023-10-23T15:24:02.161Z,19.15
2023-10-23T15:26:29.793Z,19.07
2023-10-23T15:28:57.439Z,18.97
2023-10-23T15:31:25.345Z,18.85
2023-10-23T15:33:53.564Z,18.76
2023-10-23T15:36:21.410Z,18.66
2023-10-23T15:38:49.619Z,18.55
2023-10-23T15:41:17.402Z,18.47
2023-10-23T15:43:56.671Z,18.39
2023-10-23T15:46:24.611Z,18.28
2023-10-23T15:48:52.280Z,17.98
2023-10-23T15:51:19.832Z,18.11
2023-10-23T15:53:47.665Z,18.02
2023-10-23T15:56:15.172Z,17.95
2023-10-23T15:58:42.881Z,17.89
2023-10-23T16:01:11.086Z,17.85
2023-10-23T16:03:39.012Z,17.82
2023-10-23T16:06:09.451Z,17.59
2023-10-23T16:08:37.678Z,17.54
2023-10-23T16:11:06.203Z,17.50
2023-10-23T16:13:38.633Z,17.71
2023-10-23T16:16:14.684Z,17.69
2023-10-23T16:18:45.624Z,17.67
2023-10-23T16:21:15.436Z,17.65
2023-10-23T16:23:43.882Z,17.61
2023-10-23T16:26:12.031Z,17.55
2023-10-23T16:28:40.198Z,17.50
2023-10-23T16:31:13.766Z,17.44
2023-10-23T16:33:41.991Z,17.40
2023-10-23T16:36:10.039Z,17.36
2023-10-23T16:38:37.583Z,17.32
2023-10-23T16:41:05.501Z,17.27
2023-10-23T16:43:33.143Z,17.26
2023-10-23T16:46:00.742Z,17.23
2023-10-23T16:48:28.592Z,17.21
2023-10-23T16:50:56.119Z,17.19
2023-10-23T16:53:23.662Z,17.16
2023-10-23T16:55:53.080Z,17.13
2023-10-23T16:58:24.700Z,17.13
2023-10-23T17:00:54.090Z,17.11
2023-10-23T17:03:23.432Z,17.04
2023-10-23T17:05:51.175Z,16.84
2023-10-23T17:08:18.967Z,17.04
2023-10-23T17:10:46.500Z,16.98
2023-10-23T17:13:14.023Z,16.95
2023-10-23T17:15:43.518Z,16.99
2023-10-23T17:18:11.456Z,16.98
2023-10-23T17:20:41.562Z,16.92
2023-10-23T17:23:09.515Z,16.87
2023-10-23T17:25:41.570Z,16.82
2023-10-23T17:28:09.609Z,16.76
2023-10-23T17:30:38.265Z,16.71
2023-10-23T17:33:09.202Z,16.64
2023-10-23T17:35:39.265Z,16.55
2023-10-23T17:38:07.015Z,16.27
2023-10-23T17:40:38.091Z,16.40
2023-10-23T17:43:06.033Z,16.32
2023-10-23T17:45:34.960Z,16.32
2023-10-23T17:48:04.038Z,16.30
2023-10-23T17:50:33.812Z,16.25
2023-10-23T17:53:02.367Z,15.93
2023-10-23T17:55:31.765Z,16.08
2023-10-23T17:58:00.666Z,15.98
2023-10-23T18:00:28.741Z,15.99
2023-10-23T18:02:57.071Z,15.95
2023-10-23T18:05:25.461Z,15.92
2023-10-23T18:07:54.598Z,15.90
2023-10-23T18:10:23.261Z,15.85
2023-10-23T18:12:52.619Z,15.76
2023-10-23T18:15:20.963Z,15.68
2023-10-23T18:17:49.143Z,15.69
2023-10-23T18:20:16.928Z,15.69
2023-10-23T18:22:44.597Z,15.70
2023-10-23T18:25:12.717Z,15.71
2023-10-23T18:27:40.530Z,15.74
2023-10-23T18:30:08.676Z,15.75
2023-10-23T18:32:36.699Z,15.71
2023-10-23T18:35:07.628Z,15.64
2023-10-23T18:37:36.710Z,15.66
2023-10-23T18:40:05.871Z,15.68
2023-10-23T18:42:35.570Z,15.68
2023-10-23T18:45:06.459Z,15.71
2023-10-23T18:47:34.781Z,15.75
2023-10-23T18:50:06.324Z,15.80
2023-10-23T18:52:34.537Z,15.83
2023-10-23T18:55:02.398Z,15.77
2023-10-23T18:57:30.367Z,15.61
2023-10-23T18:59:59.263Z,15.86
2023-10-23T19:02:27.528Z,15.63
2023-10-23T19:04:55.426Z,15.85
2023-10-23T19:07:23.669Z,15.84
2023-10-23T19:09:58.194Z,15.83
2023-10-23T19:12:26.518Z,15.79
2023-10-23T19:14:54.174Z,15.84
2023-10-23T19:17:36.940Z,15.69
2023-10-23T19:20:09.195Z,15.61
2023-10-23T19:22:38.644Z,15.82
2023-10-23T19:25:07.276Z,15.49
2023-10-23T19:27:35.519Z,15.76
2023-10-23T19:30:04.829Z,15.69
2023-10-23T19:32:32.721Z,15.72
2023-10-23T19:35:01.076Z,15.70
2023-10-23T19:37:29.099Z,15.43
2023-10-23T19:39:56.962Z,15.72
2023-10-23T19:42:29.367Z,15.72
2023-10-23T19:44:57.429Z,15.51
2023-10-23T19:47:25.926Z,15.76
2023-10-23T19:49:53.706Z,15.79
2023-10-23T19:52:21.958Z,15.77
2023-10-23T19:54:50.884Z,15.74
2023-10-23T19:57:18.928Z,15.56
2023-10-23T19:59:46.573Z,15.77
2023-10-23T20:02:14.560Z,15.55
2023-10-23T20:04:42.674Z,15.82
2023-10-23T20:07:10.492Z,15.85
2023-10-23T20:09:38.290Z,15.85
2023-10-23T20:12:06.506Z,15.86
2023-10-23T20:14:34.283Z,15.89
2023-10-23T20:17:01.933Z,15.88
2023-10-23T20:19:29.905Z,15.69
2023-10-23T20:21:59.308Z,15.92
2023-10-23T20:24:27.097Z,15.74
2023-10-23T20:26:54.928Z,15.95
2023-10-23T20:29:22.965Z,15.72
2023-10-23T20:31:50.909Z,15.90
2023-10-23T20:34:18.877Z,15.88
2023-10-23T20:36:46.640Z,15.87
2023-10-23T20:39:14.572Z,15.88
2023-10-23T20:41:42.382Z,15.87
2023-10-23T20:44:09.846Z,15.87
2023-10-23T20:46:37.601Z,15.86
2023-10-23T20:49:05.658Z,15.85
2023-10-23T20:51:33.211Z,15.80
2023-10-23T20:54:00.722Z,15.76
2023-10-23T20:56:28.783Z,15.51
2023-10-23T20:58:56.794Z,15.73
2023-10-23T21:01:24.401Z,15.72
2023-10-23T21:03:52.406Z,15.70
2023-10-23T21:06:20.597Z,15.69
2023-10-23T21:08:48.154Z,15.67
2023-10-23T21:11:16.584Z,15.66
2023-10-23T21:13:44.666Z,15.65
2023-10-23T21:16:12.387Z,15.61
2023-10-23T21:18:40.255Z,15.56
2023-10-23T21:21:07.821Z,15.49
2023-10-23T21:23:35.368Z,15.45
2023-10-23T21:26:07.894Z,15.38
2023-10-23T21:28:35.630Z,15.33
2023-10-23T21:31:03.830Z,15.25
2023-10-23T21:33:31.751Z,14.96
2023-10-23T21:35:59.542Z,15.14
2023-10-23T21:38:28.020Z,15.08
2023-10-23T21:40:55.506Z,15.03
2023-10-23T21:43:23.286Z,15.00
2023-10-23T21:46:01.895Z,14.97
2023-10-23T21:48:38.875Z,14.94
2023-10-23T21:51:07.438Z,14.92
2023-10-23T21:53:36.780Z,14.92
2023-10-23T21:56:04.771Z,14.71
2023-10-23T21:59:02.726Z,14.94
2023-10-23T22:01:22.226Z,14.92
2023-10-23T22:03:50.582Z,14.90
2023-10-23T22:06:19.301Z,14.67
2023-10-23T22:08:47.059Z,14.87
2023-10-23T22:11:15.307Z,14.39
2023-10-23T22:13:43.004Z,14.81
2023-10-23T22:16:10.608Z,14.82
2023-10-23T22:18:38.447Z,14.79
2023-10-23T22:21:06.218Z,14.76
2023-10-23T22:23:33.735Z,14.75
2023-10-23T22:26:01.571Z,14.72
2023-10-23T22:28:29.844Z,14.72
2023-10-23T22:30:57.478Z,14.68
2023-10-23T22:33:25.454Z,14.67
2023-10-23T22:35:53.566Z,14.64
2023-10-23T22:38:21.110Z,14.58
2023-10-23T22:40:49.912Z,14.59
2023-10-23T22:43:17.497Z,14.35
2023-10-23T22:45:55.774Z,14.53
2023-10-23T22:48:30.060Z,14.51
2023-10-23T22:50:58.045Z,14.22
2023-10-23T22:53:26.009Z,14.47
2023-10-23T22:55:55.892Z,14.46
2023-10-23T22:58:30.177Z,14.47
2023-10-23T23:00:59.414Z,14.48
2023-10-23T23:03:27.560Z,14.45
2023-10-23T23:06:02.422Z,14.47
2023-10-23T23:08:31.015Z,14.43
2023-10-23T23:10:58.873Z,14.41
2023-10-23T23:13:26.640Z,14.40
2023-10-23T23:15:58.357Z,14.38
2023-10-23T23:18:26.730Z,14.36
2023-10-23T23:20:58.116Z,14.36
2023-10-23T23:23:25.644Z,14.11
2023-10-23T23:25:53.153Z,14.32
2023-10-23T23:28:20.945Z,14.32
2023-10-23T23:30:48.532Z,14.32
2023-10-23T23:33:16.112Z,14.28
2023-10-23T23:35:44.009Z,14.29
2023-10-23T23:38:11.677Z,13.81
2023-10-23T23:40:40.029Z,14.26
2023-10-23T23:43:08.075Z,14.24
2023-10-23T23:45:35.726Z,13.99
2023-10-23T23:48:04.063Z,14.24
2023-10-23T23:50:31.978Z,14.00
2023-10-23T23:53:00.106Z,14.19
2023-10-23T23:55:28.481Z,14.18
2023-10-23T23:57:56.341Z,14.15
